createdAt,value
2022-12-18T00:00:58.836Z,100328.94
2022-12-18T00:04:06.084Z,100336.62
2022-12-18T00:07:09.183Z,100347.48
2022-12-18T00:10:11.937Z,100351.31
2022-12-18T00:13:18.364Z,100350.06
2022-12-18T00:16:23.512Z,100351.67
2022-12-18T00:19:26.324Z,100351.98
2022-12-18T00:22:29.080Z,100355.08
2022-12-18T00:25:35.159Z,100359.92
2022-12-18T00:28:38.177Z,100367.66
2022-12-18T00:31:42.594Z,100370.32
2022-12-18T00:34:45.428Z,100373.02
2022-12-18T00:37:48.194Z,100377.04
2022-12-18T00:40:51.067Z,100379.31
2022-12-18T00:43:53.798Z,100384.42
2022-12-18T00:46:56.688Z,100392.86
2022-12-18T00:49:59.450Z,100394.39
2022-12-18T00:53:02.204Z,100400.00
2022-12-18T00:56:05.916Z,100399.19
2022-12-18T00:59:08.828Z,100411.74
2022-12-18T01:02:11.697Z,100414.09
2022-12-18T01:05:15.114Z,100414.75
2022-12-18T01:08:17.898Z,100415.46
2022-12-18T01:11:22.212Z,100415.46
2022-12-18T01:14:25.108Z,100416.10
2022-12-18T01:17:27.860Z,100419.80
2022-12-18T01:20:30.628Z,100422.91
2022-12-18T01:23:33.377Z,100427.68
2022-12-18T01:26:36.118Z,100431.13
2022-12-18T01:29:38.895Z,100436.77
2022-12-18T01:32:41.640Z,100439.57
2022-12-18T01:35:44.757Z,100439.05
2022-12-18T01:38:50.146Z,100438.93
2022-12-18T01:42:04.991Z,100442.25
2022-12-18T01:45:25.151Z,100442.98
2022-12-18T01:48:27.921Z,100446.27
2022-12-18T01:51:31.712Z,100448.55
2022-12-18T01:54:34.511Z,100455.05
2022-12-18T01:57:38.008Z,100461.02
2022-12-18T02:00:41.390Z,100470.95
2022-12-18T02:03:45.517Z,100475.69
2022-12-18T02:06:52.628Z,100473.47
2022-12-18T02:10:00.968Z,100476.39
2022-12-18T02:13:13.307Z,100473.80
2022-12-18T02:16:25.239Z,100477.21
2022-12-18T02:19:53.080Z,100481.30
2022-12-18T02:23:11.833Z,100487.75
2022-12-18T02:26:21.446Z,100494.23
2022-12-18T02:29:28.327Z,100495.29
2022-12-18T02:32:34.662Z,100499.11
2022-12-18T02:35:39.745Z,100502.64
2022-12-18T02:38:44.707Z,100505.61
2022-12-18T02:41:48.496Z,100509.45
2022-12-18T02:44:52.420Z,100509.60
2022-12-18T02:47:55.414Z,100512.40
2022-12-18T02:51:08.126Z,100515.14
2022-12-18T02:54:21.994Z,100520.70
2022-12-18T02:57:35.505Z,100528.67
2022-12-18T03:00:42.625Z,100530.67
2022-12-18T03:03:50.825Z,100534.86
2022-12-18T03:06:57.876Z,100540.00
2022-12-18T03:10:02.620Z,100545.89
2022-12-18T03:13:09.498Z,100545.14
2022-12-18T03:16:16.451Z,100543.63
2022-12-18T03:19:23.067Z,100547.63
2022-12-18T03:22:30.973Z,100551.45
2022-12-18T03:25:35.812Z,100553.08
2022-12-18T03:28:45.243Z,100555.25
2022-12-18T03:31:54.237Z,100560.70
2022-12-18T03:35:03.124Z,100565.30
2022-12-18T03:38:06.390Z,100568.08
2022-12-18T03:41:17.480Z,100566.84
2022-12-18T03:44:27.715Z,100566.83
2022-12-18T03:47:35.122Z,100570.77
2022-12-18T03:50:45.581Z,100570.73
2022-12-18T03:53:54.324Z,100578.83
2022-12-18T03:57:02.114Z,100584.27
2022-12-18T04:00:09.371Z,100589.05
2022-12-18T04:03:14.172Z,100588.86
2022-12-18T04:06:18.241Z,100587.38
2022-12-18T04:09:21.952Z,100590.77
2022-12-18T04:12:27.411Z,100594.48
2022-12-18T04:15:30.232Z,100599.25
2022-12-18T04:18:33.181Z,100604.02
2022-12-18T04:21:35.979Z,100603.73
2022-12-18T04:24:38.748Z,100608.52
2022-12-18T04:27:41.632Z,100611.49
2022-12-18T04:30:44.427Z,100617.98
2022-12-18T04:33:47.240Z,100623.95
2022-12-18T04:36:50.086Z,100626.10
2022-12-18T04:39:52.840Z,100630.89
2022-12-18T04:42:55.687Z,100636.41
2022-12-18T04:46:04.594Z,100639.73
2022-12-18T04:49:07.824Z,100645.02
2022-12-18T04:52:10.593Z,100646.16
2022-12-18T04:55:13.341Z,100646.84
2022-12-18T04:58:16.467Z,100653.52
2022-12-18T05:01:20.017Z,100661.31
2022-12-18T05:04:22.936Z,100666.52
2022-12-18T05:07:26.020Z,100667.10
2022-12-18T05:10:32.237Z,100670.15
2022-12-18T05:13:39.874Z,100672.94
2022-12-18T05:16:42.980Z,100675.69
2022-12-18T05:19:46.710Z,100674.34
2022-12-18T05:22:49.659Z,100676.35
2022-12-18T05:25:54.068Z,100673.75
2022-12-18T05:28:56.816Z,100670.77
2022-12-18T05:31:59.568Z,100672.75
2022-12-18T05:35:02.754Z,100676.81
2022-12-18T05:38:05.540Z,100674.45
2022-12-18T05:41:09.548Z,100673.73
2022-12-18T05:44:12.321Z,100672.45
2022-12-18T05:47:15.103Z,100677.20
2022-12-18T05:50:18.419Z,100681.03
2022-12-18T05:53:22.137Z,100687.25
2022-12-18T05:56:24.892Z,100691.73
2022-12-18T05:59:28.072Z,100697.86
2022-12-18T06:02:30.958Z,100698.27
2022-12-18T06:05:37.531Z,100699.83
2022-12-18T06:08:45.867Z,100701.45
2022-12-18T06:11:49.172Z,100702.50
2022-12-18T06:14:51.932Z,100705.63
2022-12-18T06:17:54.746Z,100714.06
2022-12-18T06:20:58.237Z,100716.04
2022-12-18T06:24:01.754Z,100723.08
2022-12-18T06:27:04.876Z,100727.17
2022-12-18T06:30:11.187Z,100727.99
2022-12-18T06:33:13.249Z,100727.69
2022-12-18T06:36:17.024Z,100733.57
2022-12-18T06:39:19.762Z,100739.08
2022-12-18T06:42:22.643Z,100741.47
2022-12-18T06:45:25.556Z,100744.05
2022-12-18T06:48:28.424Z,100747.55
2022-12-18T06:51:31.183Z,100752.17
2022-12-18T06:54:33.935Z,100755.77
2022-12-18T06:57:36.975Z,100756.46
2022-12-18T07:00:39.818Z,100763.10
2022-12-18T07:03:43.994Z,100767.78
2022-12-18T07:06:47.457Z,100772.97
2022-12-18T07:09:51.766Z,100777.27
2022-12-18T07:12:54.503Z,100785.08
2022-12-18T07:16:03.435Z,100789.48
2022-12-18T07:19:06.213Z,100790.27
2022-12-18T07:22:08.968Z,100796.66
2022-12-18T07:25:11.700Z,100800.59
2022-12-18T07:28:17.528Z,100800.95
2022-12-18T07:31:22.440Z,100809.39
2022-12-18T07:34:25.581Z,100812.88
2022-12-18T07:37:28.645Z,100816.01
2022-12-18T07:40:31.356Z,100820.70
2022-12-18T07:43:34.922Z,100825.01
2022-12-18T07:46:37.752Z,100832.38
2022-12-18T07:49:40.544Z,100835.97
2022-12-18T07:52:43.300Z,100839.23
2022-12-18T07:56:11.159Z,100837.69
2022-12-18T07:59:09.229Z,100842.13
2022-12-18T08:02:12.281Z,100841.05
2022-12-18T08:05:15.569Z,100836.25
2022-12-18T08:08:18.402Z,100838.64
2022-12-18T08:11:21.497Z,100842.39
2022-12-18T08:14:24.483Z,100842.40
2022-12-18T08:17:27.251Z,100847.17
2022-12-18T08:20:30.028Z,100842.77
2022-12-18T08:23:32.835Z,100843.52
2022-12-18T08:26:35.572Z,100853.44
2022-12-18T08:29:38.552Z,100857.88
2022-12-18T08:32:41.352Z,100859.55
2022-12-18T08:35:46.009Z,100858.30
2022-12-18T08:38:49.163Z,100864.21
2022-12-18T08:42:10.095Z,100866.48
2022-12-18T08:45:13.423Z,100864.98
2022-12-18T08:48:21.895Z,100865.52
2022-12-18T08:51:25.378Z,100868.89
2022-12-18T08:54:28.266Z,100869.57
2022-12-18T08:57:31.036Z,100871.66
2022-12-18T09:00:33.771Z,100874.17
2022-12-18T09:03:37.785Z,100879.35
2022-12-18T09:06:40.913Z,100889.67
2022-12-18T09:09:44.088Z,100891.66
2022-12-18T09:12:46.886Z,100893.77
2022-12-18T09:15:53.537Z,100890.98
2022-12-18T09:18:59.872Z,100895.98
2022-12-18T09:22:03.000Z,100899.16
2022-12-18T09:25:08.623Z,100899.88
2022-12-18T09:28:13.511Z,100901.38
2022-12-18T09:31:17.650Z,100906.95
2022-12-18T09:34:22.212Z,100904.05
2022-12-18T09:37:25.280Z,100903.41
2022-12-18T09:40:33.925Z,100902.45
2022-12-18T09:43:41.864Z,100897.13
2022-12-18T09:46:49.745Z,100893.84
2022-12-18T09:49:57.591Z,100892.52
2022-12-18T09:53:06.801Z,100896.73
2022-12-18T09:56:16.960Z,100896.55
2022-12-18T09:59:24.772Z,100896.36
2022-12-18T10:02:31.257Z,100897.87
2022-12-18T10:05:43.953Z,100903.30
2022-12-18T10:08:54.614Z,100902.56
2022-12-18T10:12:07.050Z,100899.89
2022-12-18T10:15:18.417Z,100895.36
2022-12-18T10:18:33.788Z,100890.65
2022-12-18T10:21:46.595Z,100887.81
2022-12-18T10:25:00.557Z,100886.10
2022-12-18T10:28:11.345Z,100887.66
2022-12-18T10:31:18.299Z,100887.21
2022-12-18T10:34:21.305Z,100889.16
2022-12-18T10:37:26.075Z,100893.02
2022-12-18T10:40:28.874Z,100894.28
2022-12-18T10:43:33.456Z,100893.05
2022-12-18T10:46:36.424Z,100887.74
2022-12-18T10:49:48.437Z,100885.92
2022-12-18T10:52:58.572Z,100878.98
2022-12-18T10:56:03.120Z,100876.27
2022-12-18T10:59:07.936Z,100869.02
2022-12-18T11:02:28.787Z,100866.77
2022-12-18T11:05:33.257Z,100872.07
2022-12-18T11:08:36.347Z,100872.45
2022-12-18T11:11:39.161Z,100873.94
2022-12-18T11:14:47.867Z,100874.65
2022-12-18T11:17:52.737Z,100876.15
2022-12-18T11:20:59.305Z,100872.85
2022-12-18T11:24:02.588Z,100869.13
2022-12-18T11:27:16.437Z,100867.58
2022-12-18T11:30:25.532Z,100858.66
2022-12-18T11:33:28.550Z,100856.81
2022-12-18T11:36:36.392Z,100854.91
2022-12-18T11:39:45.492Z,100848.69
2022-12-18T11:42:55.645Z,100848.21
2022-12-18T11:46:03.369Z,100850.59
2022-12-18T11:49:13.187Z,100849.58
2022-12-18T11:52:20.484Z,100846.33
2022-12-18T11:55:34.425Z,100854.69
2022-12-18T11:58:46.953Z,100868.10
2022-12-18T12:01:53.830Z,100871.97
2022-12-18T12:05:19.628Z,100868.96
2022-12-18T12:08:32.954Z,100876.73
2022-12-18T12:11:51.745Z,100877.33
2022-12-18T12:15:04.252Z,100880.23
2022-12-18T12:18:17.077Z,100878.35
2022-12-18T12:21:26.820Z,100878.73
2022-12-18T12:24:48.892Z,100875.54
2022-12-18T12:28:01.357Z,100879.33
2022-12-18T12:31:14.156Z,100879.47
2022-12-18T12:34:22.611Z,100877.36
2022-12-18T12:37:39.316Z,100878.04
2022-12-18T12:40:53.960Z,100880.87
2022-12-18T12:44:07.711Z,100884.35
2022-12-18T12:47:15.424Z,100890.16
2022-12-18T12:50:22.499Z,100897.34
2022-12-18T12:53:31.738Z,100906.02
2022-12-18T12:56:40.838Z,100911.88
2022-12-18T12:59:53.601Z,100917.98
2022-12-18T13:03:05.596Z,100921.71
2022-12-18T13:06:18.493Z,100922.92
2022-12-18T13:09:21.588Z,100931.08
2022-12-18T13:12:45.575Z,100937.59
2022-12-18T13:16:04.051Z,100943.52
2022-12-18T13:19:25.683Z,100946.00
2022-12-18T13:22:34.896Z,100947.39
2022-12-18T13:25:38.796Z,100948.14
2022-12-18T13:28:57.181Z,100949.22
2022-12-18T13:32:03.341Z,100948.34
2022-12-18T13:35:40.265Z,100951.13
2022-12-18T13:38:44.248Z,100961.27
2022-12-18T13:41:49.360Z,100964.70
2022-12-18T13:44:52.431Z,100963.84
2022-12-18T13:47:55.781Z,100970.94
2022-12-18T13:51:04.923Z,100966.20
2022-12-18T13:54:19.412Z,100962.21
2022-12-18T13:57:30.189Z,100964.93
2022-12-18T14:00:33.000Z,100969.83
2022-12-18T14:03:35.992Z,100977.58
2022-12-18T14:06:39.385Z,100985.54
2022-12-18T14:09:46.497Z,100985.79
2022-12-18T14:12:57.944Z,100989.49
2022-12-18T14:16:07.527Z,100989.20
2022-12-18T14:19:15.864Z,100993.04
2022-12-18T14:22:21.732Z,100999.18
2022-12-18T14:25:26.377Z,101001.82
2022-12-18T14:28:29.314Z,101001.77
2022-12-18T14:31:32.762Z,101002.47
2022-12-18T14:34:35.535Z,101009.09
2022-12-18T14:37:38.299Z,101012.72
2022-12-18T14:40:41.073Z,101015.82
2022-12-18T14:43:47.000Z,101012.37
2022-12-18T14:46:51.611Z,101010.39
2022-12-18T14:49:54.418Z,101009.95
2022-12-18T14:52:57.196Z,101015.60
2022-12-18T14:56:00.796Z,101018.63
2022-12-18T14:59:06.444Z,101017.26
2022-12-18T15:02:19.732Z,101022.80
2022-12-18T15:05:28.717Z,101019.13
2022-12-18T15:08:36.768Z,101019.49
2022-12-18T15:11:47.024Z,101020.38
2022-12-18T15:14:49.886Z,101017.04
2022-12-18T15:17:59.086Z,101018.27
2022-12-18T15:21:10.423Z,101021.48
2022-12-18T15:24:21.064Z,101020.23
2022-12-18T15:27:30.882Z,101022.30
2022-12-18T15:30:33.777Z,101020.25
2022-12-18T15:33:39.207Z,101027.09
2022-12-18T15:36:42.314Z,101031.48
2022-12-18T15:39:45.043Z,101037.21
2022-12-18T15:43:07.460Z,101041.92
2022-12-18T15:46:14.119Z,101046.77
2022-12-18T15:49:16.885Z,101046.20
2022-12-18T15:52:26.208Z,101054.16
2022-12-18T15:55:47.703Z,101065.20
2022-12-18T15:58:50.883Z,101067.96
2022-12-18T16:01:54.577Z,101072.14
2022-12-18T16:04:58.512Z,101076.11
2022-12-18T16:08:02.053Z,101074.80
2022-12-18T16:11:06.469Z,101078.04
2022-12-18T16:14:18.914Z,101079.48
2022-12-18T16:17:21.926Z,101080.20
2022-12-18T16:20:24.692Z,101078.84
2022-12-18T16:23:27.806Z,101076.91
2022-12-18T16:26:38.063Z,101078.21
2022-12-18T16:29:40.933Z,101086.42
2022-12-18T16:32:44.260Z,101097.27
2022-12-18T16:35:53.924Z,101100.73
2022-12-18T16:38:56.893Z,101104.55
2022-12-18T16:42:01.976Z,101107.02
2022-12-18T16:45:11.878Z,101108.77
2022-12-18T16:48:14.961Z,101110.02
2022-12-18T16:51:18.056Z,101108.46
2022-12-18T16:54:21.650Z,101111.16
2022-12-18T16:57:25.227Z,101118.81
2022-12-18T17:00:28.346Z,101119.10
2022-12-18T17:03:31.112Z,101121.10
2022-12-18T17:06:36.118Z,101126.98
2022-12-18T17:09:39.655Z,101133.20
2022-12-18T17:12:43.176Z,101129.56
2022-12-18T17:15:46.695Z,101122.76
2022-12-18T17:18:50.259Z,101120.35
2022-12-18T17:21:53.964Z,101123.55
2022-12-18T17:24:56.710Z,101127.64
2022-12-18T17:27:59.558Z,101122.73
2022-12-18T17:31:02.505Z,101123.30
2022-12-18T17:34:05.608Z,101128.77
2022-12-18T17:37:08.636Z,101129.89
2022-12-18T17:40:12.748Z,101126.45
2022-12-18T17:43:15.836Z,101119.47
2022-12-18T17:46:19.901Z,101127.73
2022-12-18T17:49:22.814Z,101125.79
2022-12-18T17:52:25.726Z,101117.56
2022-12-18T17:55:28.958Z,101114.08
2022-12-18T17:58:32.622Z,101107.08
2022-12-18T18:01:40.946Z,101100.62
2022-12-18T18:04:45.368Z,101100.46
2022-12-18T18:07:49.882Z,101090.84
2022-12-18T18:11:15.637Z,101092.98
2022-12-18T18:14:20.225Z,101090.54
2022-12-18T18:17:23.124Z,101084.92
2022-12-18T18:20:27.958Z,101085.61
2022-12-18T18:23:32.455Z,101087.02
2022-12-18T18:26:36.185Z,101088.08
2022-12-18T18:29:39.515Z,101092.46
2022-12-18T18:32:42.256Z,101100.70
2022-12-18T18:35:53.850Z,101101.38
2022-12-18T18:39:00.004Z,101109.44
2022-12-18T18:42:03.241Z,101115.22
2022-12-18T18:45:08.327Z,101118.19
2022-12-18T18:48:11.372Z,101125.04
2022-12-18T18:51:21.116Z,101130.45
2022-12-18T18:54:24.554Z,101125.71
2022-12-18T18:57:30.281Z,101120.98
2022-12-18T19:00:33.623Z,101118.33
2022-12-18T19:03:37.520Z,101119.71
2022-12-18T19:06:40.990Z,101124.41
2022-12-18T19:09:51.484Z,101124.39
2022-12-18T19:13:12.337Z,101119.09
2022-12-18T19:16:15.621Z,101114.00
2022-12-18T19:19:20.433Z,101124.48
2022-12-18T19:22:24.170Z,101122.87
2022-12-18T19:25:40.569Z,101124.92
2022-12-18T19:28:45.170Z,101128.16
2022-12-18T19:31:48.013Z,101122.63
2022-12-18T19:34:53.175Z,101122.94
2022-12-18T19:37:56.500Z,101127.15
2022-12-18T19:40:59.287Z,101133.63
2022-12-18T19:44:07.705Z,101143.44
2022-12-18T19:47:11.245Z,101147.78
2022-12-18T19:50:14.604Z,101145.98
2022-12-18T19:53:17.661Z,101140.17
2022-12-18T19:56:24.085Z,101139.82
2022-12-18T19:59:26.849Z,101146.95
2022-12-18T20:02:30.603Z,101146.86
2022-12-18T20:05:33.600Z,101153.09
2022-12-18T20:08:36.555Z,101155.59
2022-12-18T20:11:42.037Z,101157.27
2022-12-18T20:14:45.233Z,101162.31
2022-12-18T20:17:49.904Z,101168.08
2022-12-18T20:20:52.915Z,101169.84
2022-12-18T20:23:59.669Z,101165.63
2022-12-18T20:27:04.723Z,101166.61
2022-12-18T20:30:10.572Z,101165.85
2022-12-18T20:33:13.712Z,101168.23
2022-12-18T20:36:22.469Z,101171.30
2022-12-18T20:39:26.975Z,101172.07
2022-12-18T20:42:30.018Z,101176.38
2022-12-18T20:45:33.039Z,101184.43
2022-12-18T20:48:36.505Z,101178.67
2022-12-18T20:51:39.235Z,101176.90
2022-12-18T20:54:42.311Z,101184.92
2022-12-18T20:57:45.341Z,101186.98
2022-12-18T21:00:48.170Z,101185.59
2022-12-18T21:03:52.145Z,101177.39
2022-12-18T21:06:57.939Z,101169.19
2022-12-18T21:10:06.537Z,101164.61
2022-12-18T21:13:09.515Z,101161.66
2022-12-18T21:16:14.337Z,101160.30
2022-12-18T21:19:19.999Z,101156.55
2022-12-18T21:22:23.347Z,101151.77
2022-12-18T21:25:28.821Z,101143.81
2022-12-18T21:28:31.580Z,101140.20
2022-12-18T21:31:38.607Z,101139.91
2022-12-18T21:34:47.511Z,101135.68
2022-12-18T21:37:50.995Z,101128.67
2022-12-18T21:40:53.764Z,101129.84
2022-12-18T21:44:05.352Z,101127.75
2022-12-18T21:47:21.805Z,101119.27
2022-12-18T21:50:25.993Z,101115.45
2022-12-18T21:53:29.259Z,101112.77
2022-12-18T21:56:45.341Z,101107.15
2022-12-18T21:59:48.908Z,101100.86
2022-12-18T22:03:17.790Z,101104.14
2022-12-18T22:06:14.405Z,101107.30
2022-12-18T22:09:19.568Z,101109.23
2022-12-18T22:12:34.691Z,101107.41
2022-12-18T22:15:37.520Z,101107.30
2022-12-18T22:18:40.360Z,101109.92
2022-12-18T22:21:45.775Z,101108.20
2022-12-18T22:24:49.411Z,101105.98
2022-12-18T22:28:06.732Z,101103.37
2022-12-18T22:31:09.907Z,101103.36
2022-12-18T22:34:13.555Z,101105.00
2022-12-18T22:37:16.445Z,101108.33
2022-12-18T22:40:25.326Z,101096.77
2022-12-18T22:43:28.477Z,101100.31
2022-12-18T22:46:33.417Z,101095.09
2022-12-18T22:49:37.001Z,101089.98
2022-12-18T22:52:40.456Z,101089.21
2022-12-18T22:55:43.188Z,101092.97
2022-12-18T22:58:48.841Z,101086.81
2022-12-18T23:01:57.105Z,101081.72
2022-12-18T23:05:02.191Z,101085.63
2022-12-18T23:08:05.735Z,101087.61
2022-12-18T23:11:08.986Z,101081.59
2022-12-18T23:14:12.188Z,101078.27
2022-12-18T23:17:14.968Z,101078.90
2022-12-18T23:20:17.851Z,101086.94
2022-12-18T23:23:20.609Z,101080.16
2022-12-18T23:26:25.443Z,101087.27
2022-12-18T23:29:28.214Z,101097.45
2022-12-18T23:32:30.964Z,101094.52
2022-12-18T23:35:35.769Z,101088.48
2022-12-18T23:38:39.515Z,101089.98
2022-12-18T23:41:42.268Z,101093.27
2022-12-18T23:44:45.043Z,101088.15
2022-12-18T23:47:50.844Z,101091.92
2022-12-18T23:50:54.133Z,101094.82
2022-12-18T23:53:58.728Z,101099.02
2022-12-18T23:57:01.753Z,101096.42
